Time;durP1;ratioP1;P1;durP2;ratioP2;P2;SDS_P1;SDS_P2;PMS_P1;PMS_P2;Temp;Humidity;BMP_temperature;BMP_pressure;BME280_temperature;BME280_humidity;BME280_pressure;Samples;Min_cycle;Max_cycle;Signal;HPM_P1;HPM_P2
2023/07/12 08:52:33;;;;;;;42.97;5.77;;;23.20;94.10;;;;;;2088995;27;20585;-66
2023/07/12 08:53:39;;;;;;;3.97;3.00;;;22.80;93.80;;;;;;2089941;28;20578;-68
2023/07/12 08:54:40;;;;;;;6.13;3.03;;;22.90;91.50;;;;;;2077987;28;20958;-66
2023/07/12 08:55:41;;;;;;;4.10;3.27;;;23.00;91.20;;;;;;2088840;28;20468;-67
2023/07/12 08:56:41;;;;;;;3.60;3.17;;;23.20;92.70;;;;;;2087009;28;20608;-68
2023/07/12 08:57:43;;;;;;;4.37;3.47;;;23.40;91.40;;;;;;2084498;28;20212;-66
2023/07/12 08:58:47;;;;;;;4.53;3.47;;;23.60;90.50;;;;;;2081839;28;20216;-67
2023/07/12 09:00:05;;;;;;;4.50;3.30;;;23.80;88.20;;;;;;2085067;28;20480;-67
2023/07/12 09:01:15;;;;;;;9.57;3.10;;;23.90;90.30;;;;;;2084039;28;20516;-67
2023/07/12 09:02:24;;;;;;;6.37;3.10;;;24.00;85.40;;;;;;2093182;28;20413;-68
2023/07/12 09:03:24;;;;;;;3.73;3.37;;;24.20;86.30;;;;;;2084455;28;20472;-67
2023/07/12 09:04:31;;;;;;;4.87;3.60;;;24.20;85.90;;;;;;2081120;28;20484;-69
2023/07/12 09:05:32;;;;;;;5.50;3.43;;;24.10;83.70;;;;;;2085845;28;20302;-71
2023/07/12 09:06:33;;;;;;;4.90;3.43;;;23.80;86.50;;;;;;2077316;28;20474;-68
2023/07/12 09:07:35;;;;;;;4.33;3.40;;;23.70;86.80;;;;;;2083663;28;20553;-67
2023/07/12 09:08:40;;;;;;;4.17;3.77;;;23.70;88.60;;;;;;2085163;28;20527;-70
2023/07/12 09:09:40;;;;;;;6.43;3.87;;;23.80;89.00;;;;;;2085574;28;20508;-73
2023/07/12 09:10:51;;;;;;;4.80;3.70;;;23.80;85.30;;;;;;2076847;28;20528;-72
2023/07/12 09:11:52;;;;;;;6.30;3.77;;;23.90;87.30;;;;;;2084990;28;20220;-72
2023/07/12 09:12:53;;;;;;;4.60;3.30;;;24.00;87.70;;;;;;2083607;28;21357;-71
2023/07/12 09:13:56;;;;;;;4.70;3.53;;;24.10;86.50;;;;;;2083612;28;20311;-71
2023/07/12 09:15:12;;;;;;;10.50;3.67;;;24.10;83.20;;;;;;2083441;28;20907;-70
2023/07/12 09:16:28;;;;;;;5.67;3.30;;;24.10;84.10;;;;;;2077983;28;20442;-70
2023/07/12 09:17:38;;;;;;;4.20;3.40;;;24.20;86.50;;;;;;2082676;28;20844;-71
2023/07/12 09:18:39;;;;;;;7.93;3.50;;;24.20;84.50;;;;;;2078006;28;20580;-70
2023/07/12 09:19:43;;;;;;;9.27;3.83;;;24.40;83.30;;;;;;2085368;28;20874;-70
2023/07/12 09:20:53;;;;;;;6.23;3.67;;;24.40;82.30;;;;;;2082320;28;20220;-71
2023/07/12 09:21:56;;;;;;;6.27;3.30;;;24.60;81.70;;;;;;2079243;28;20504;-74
2023/07/12 09:22:59;;;;;;;5.17;3.70;;;24.60;76.20;;;;;;2089508;28;20527;-68
2023/07/12 09:24:10;;;;;;;5.30;3.40;;;24.70;73.80;;;;;;2090297;28;20515;-68
2023/07/12 09:25:25;;;;;;;4.80;3.50;;;24.60;76.00;;;;;;2075115;28;20452;-68
2023/07/12 09:26:29;;;;;;;8.10;3.63;;;24.70;77.90;;;;;;2075263;28;20520;-68
2023/07/12 09:27:30;;;;;;;4.13;3.00;;;24.70;76.40;;;;;;2077046;28;20473;-65
2023/07/12 09:28:30;;;;;;;3.50;3.20;;;24.80;78.60;;;;;;2084889;28;20469;-69
2023/07/12 09:29:35;;;;;;;4.33;3.23;;;25.00;75.50;;;;;;2086480;28;20294;-69
2023/07/12 09:30:37;;;;;;;4.63;3.23;;;25.20;72.50;;;;;;2084907;28;20302;-69
2023/07/12 09:31:43;;;;;;;6.33;3.20;;;25.10;67.40;;;;;;2085211;28;20476;-70
2023/07/12 09:32:48;;;;;;;4.80;3.30;;;24.80;71.00;;;;;;2089975;28;20472;-67
2023/07/12 09:33:58;;;;;;;4.53;3.10;;;24.90;72.30;;;;;;2087461;28;21027;-69
2023/07/12 09:34:59;;;;;;;3.37;2.90;;;25.00;69.60;;;;;;2075041;28;20327;-69
2023/07/12 09:36:05;;;;;;;3.60;3.10;;;25.10;70.20;;;;;;2081226;28;20250;-69
2023/07/12 09:37:17;;;;;;;5.40;3.40;;;25.30;72.20;;;;;;2076548;28;20222;-69
2023/07/12 09:38:24;;;;;;;5.07;3.20;;;25.40;64.60;;;;;;2092092;28;20183;-69
2023/07/12 09:39:26;;;;;;;4.63;3.10;;;25.40;65.20;;;;;;2083758;28;20228;-65
2023/07/12 09:40:40;;;;;;;7.20;3.40;;;25.30;68.20;;;;;;2085175;28;20224;-67
2023/07/12 09:41:50;;;;;;;4.33;3.33;;;25.00;68.70;;;;;;2090709;28;20281;-69
2023/07/12 09:42:57;;;;;;;4.10;3.33;;;24.80;70.00;;;;;;2089934;28;20743;-67
2023/07/12 09:44:00;;;;;;;6.60;3.30;;;24.70;69.50;;;;;;2084684;28;20734;-68
2023/07/12 09:45:04;;;;;;;3.60;2.83;;;24.50;71.30;;;;;;2076562;28;20220;-67
2023/07/12 09:46:37;;;;;;;4.77;3.30;;;24.50;72.30;;;;;;2083576;28;20268;-70
2023/07/12 09:48:02;;;;;;;4.83;3.03;;;24.80;75.10;;;;;;2083577;28;20255;-69
2023/07/12 09:49:19;;;;;;;9.30;3.57;;;25.20;68.10;;;;;;2091120;28;20214;-69
2023/07/12 09:50:39;;;;;;;7.00;2.97;;;25.30;63.40;;;;;;2079760;28;20704;-69
2023/07/12 09:52:17;;;;;;;3.83;2.90;;;25.30;64.90;;;;;;2074297;28;20247;-67
2023/07/12 09:53:37;;;;;;;3.47;2.50;;;25.60;66.40;;;;;;2084985;28;20781;-68
2023/07/12 09:55:05;;;;;;;6.20;2.80;;;25.60;59.60;;;;;;2075034;28;20229;-69
2023/07/12 09:56:17;;;;;;;3.03;2.60;;;25.40;60.90;;;;;;2077725;28;20223;-68
2023/07/12 09:57:40;;;;;;;2.93;2.70;;;25.30;64.00;;;;;;2085362;28;20185;-68
2023/07/12 09:58:56;;;;;;;3.33;2.53;;;25.30;61.00;;;;;;2088572;28;20219;-69
2023/07/12 10:00:09;;;;;;;4.20;3.03;;;25.40;58.70;;;;;;2077504;28;20279;-69
2023/07/12 10:01:31;;;;;;;4.57;3.00;;;25.60;62.30;;;;;;2082928;28;20224;-69
2023/07/12 10:02:49;;;;;;;3.50;2.90;;;25.80;59.70;;;;;;2080279;28;20684;-70
2023/07/12 10:03:56;;;;;;;5.27;2.90;;;26.00;59.10;;;;;;2069043;28;20244;-68
2023/07/12 10:05:20;;;;;;;3.10;2.80;;;25.90;59.20;;;;;;2070682;28;20257;-69
2023/07/12 10:06:40;;;;;;;4.47;2.77;;;25.80;56.80;;;;;;2064234;28;20296;-68
2023/07/12 10:08:07;;;;;;;4.10;2.90;;;25.50;60.40;;;;;;2077026;28;20221;-68
2023/07/12 10:09:22;;;;;;;4.50;2.87;;;25.40;59.80;;;;;;2069694;28;20233;-67
2023/07/12 10:10:38;;;;;;;7.90;3.00;;;25.50;61.60;;;;;;2065323;28;20222;-67
2023/07/12 10:11:56;;;;;;;3.10;2.50;;;25.70;61.20;;;;;;2076544;28;20610;-68
2023/07/12 10:13:31;;;;;;;6.03;3.00;;;26.00;58.60;;;;;;2073111;28;20689;-69
2023/07/12 10:14:36;;;;;;;4.53;2.70;;;25.80;55.20;;;;;;2076234;28;20232;-67
2023/07/12 10:15:40;;;;;;;6.47;2.90;;;25.60;59.80;;;;;;2084133;28;20232;-69
2023/07/12 10:16:54;;;;;;;5.27;3.43;;;25.70;60.10;;;;;;2080324;28;20223;-69
2023/07/12 10:17:55;;;;;;;4.73;3.10;;;25.80;58.00;;;;;;2078614;28;20279;-68
2023/07/12 10:18:57;;;;;;;3.77;2.90;;;25.80;56.30;;;;;;2079190;28;20224;-68
2023/07/12 10:19:58;;;;;;;7.30;3.03;;;25.80;57.90;;;;;;2083645;28;20618;-67
2023/07/12 10:21:00;;;;;;;4.43;2.70;;;25.80;56.30;;;;;;2083955;28;20296;-68
2023/07/12 10:22:18;;;;;;;5.97;3.00;;;25.80;56.70;;;;;;2077689;28;20221;-68
2023/07/12 10:23:24;;;;;;;5.90;3.23;;;25.70;55.60;;;;;;2073413;28;20748;-70
2023/07/12 10:24:36;;;;;;;4.30;3.20;;;25.50;55.40;;;;;;2074166;28;20736;-68
2023/07/12 10:25:44;;;;;;;5.37;3.40;;;25.50;55.20;;;;;;2083565;28;20239;-68
2023/07/12 10:26:47;;;;;;;6.07;3.17;;;25.50;56.00;;;;;;2076152;28;20216;-71
2023/07/12 10:28:11;;;;;;;3.87;3.20;;;25.40;56.50;;;;;;2078838;28;20227;-69
2023/07/12 10:30:10;;;;;;;7.40;3.57;;;25.40;56.30;;;;;;2028845;29;20216;-69
2023/07/12 10:31:25;;;;;;;6.53;3.50;;;25.40;56.10;;;;;;2062736;28;20241;-68
2023/07/12 10:32:41;;;;;;;4.60;3.33;;;25.40;55.00;;;;;;2056683;28;20317;-70
2023/07/12 10:33:48;;;;;;;4.30;3.57;;;25.60;55.20;;;;;;2071654;28;20671;-70
2023/07/12 10:35:17;;;;;;;4.20;3.57;;;25.90;56.00;;;;;;2078674;28;20554;-69
2023/07/12 10:36:24;;;;;;;5.33;3.23;;;25.80;53.20;;;;;;2075536;28;20595;-70
2023/07/12 10:37:37;;;;;;;7.00;3.37;;;25.80;55.10;;;;;;2075377;28;20248;-67
2023/07/12 10:38:37;;;;;;;11.70;3.67;;;25.50;55.40;;;;;;2082235;28;20233;-67
2023/07/12 10:39:40;;;;;;;5.83;3.10;;;25.60;55.20;;;;;;2079275;28;20759;-67
2023/07/12 10:41:07;;;;;;;5.10;3.47;;;25.80;56.90;;;;;;2076151;28;20248;-66
2023/07/12 10:42:25;;;;;;;4.87;3.23;;;25.80;54.10;;;;;;2079837;28;20300;-67
2023/07/12 10:43:33;;;;;;;5.70;3.40;;;25.70;55.40;;;;;;2067454;28;20230;-69
2023/07/12 10:44:41;;;;;;;5.80;3.20;;;25.90;56.70;;;;;;2063974;28;20241;-69
2023/07/12 10:45:43;;;;;;;4.77;3.50;;;26.10;53.60;;;;;;2078587;28;20255;-69
2023/07/12 10:46:52;;;;;;;3.93;3.00;;;26.10;53.40;;;;;;2080953;28;20290;-69
2023/07/12 10:47:54;;;;;;;4.67;3.33;;;26.20;53.20;;;;;;2072400;28;20225;-69
2023/07/12 10:48:55;;;;;;;3.50;3.20;;;26.20;55.80;;;;;;2075098;28;20217;-68
2023/07/12 10:50:02;;;;;;;6.63;3.70;;;26.00;56.50;;;;;;2066815;28;20311;-69
2023/07/12 10:51:40;;;;;;;4.40;3.50;;;26.00;56.10;;;;;;2070715;28;20217;-69
2023/07/12 10:53:11;;;;;;;7.40;3.57;;;26.40;53.60;;;;;;2071908;28;20232;-69
2023/07/12 10:54:30;;;;;;;4.47;3.20;;;26.50;52.80;;;;;;2079318;28;20298;-68
2023/07/12 10:56:08;;;;;;;4.80;3.43;;;26.40;53.80;;;;;;2083235;28;20292;-68
2023/07/12 10:57:28;;;;;;;3.83;3.37;;;26.60;54.00;;;;;;2067420;28;20567;-69
2023/07/12 10:58:50;;;;;;;3.90;2.93;;;26.80;53.60;;;;;;2064188;28;20266;-70
2023/07/12 11:00:01;;;;;;;5.33;3.37;;;26.80;51.90;;;;;;2072736;28;20248;-68
2023/07/12 11:01:02;;;;;;;4.97;3.90;;;26.50;53.10;;;;;;2063060;28;20586;-70
2023/07/12 11:02:03;;;;;;;5.90;3.40;;;26.50;53.00;;;;;;2071075;28;20542;-70
2023/07/12 11:03:20;;;;;;;3.83;3.10;;;26.70;52.00;;;;;;2075681;28;20321;-69
2023/07/12 11:04:31;;;;;;;4.90;3.90;;;26.90;51.50;;;;;;2075639;28;20386;-69
2023/07/12 11:05:58;;;;;;;6.17;3.20;;;27.00;53.30;;;;;;2079842;28;20221;-69
2023/07/12 11:07:25;;;;;;;6.23;3.13;;;27.00;51.50;;;;;;2076178;28;20217;-70
2023/07/12 11:08:32;;;;;;;5.30;3.60;;;26.70;51.20;;;;;;2078369;28;20224;-69
2023/07/12 11:09:47;;;;;;;5.27;3.63;;;26.40;51.90;;;;;;2086638;28;20228;-68
2023/07/12 11:10:50;;;;;;;5.47;4.13;;;26.50;53.70;;;;;;2083032;28;20374;-70
2023/07/12 11:12:05;;;;;;;4.57;3.60;;;26.90;52.10;;;;;;2075601;28;20786;-70
2023/07/12 11:13:13;;;;;;;5.20;3.87;;;27.50;53.10;;;;;;2069015;28;20224;-69
2023/07/12 11:14:23;;;;;;;4.43;3.50;;;28.10;49.30;;;;;;2066810;28;20205;-69
2023/07/12 11:15:27;;;;;;;5.83;3.63;;;28.20;47.80;;;;;;2075046;28;20229;-69
2023/07/12 11:16:29;;;;;;;5.87;3.70;;;28.30;46.30;;;;;;2070501;28;20308;-69
2023/07/12 11:17:47;;;;;;;6.93;4.17;;;28.60;46.00;;;;;;2071059;28;20229;-69
2023/07/12 11:18:54;;;;;;;7.07;3.70;;;28.90;47.50;;;;;;2068223;28;20221;-69
2023/07/12 11:20:07;;;;;;;6.33;3.73;;;29.00;44.70;;;;;;2073975;28;20231;-69
2023/07/12 11:21:50;;;;;;;5.97;3.77;;;28.70;44.50;;;;;;2072978;28;20213;-68
2023/07/12 11:23:36;;;;;;;4.43;3.70;;;28.30;44.70;;;;;;2067562;28;20227;-69
2023/07/12 11:24:44;;;;;;;6.20;4.03;;;27.60;46.60;;;;;;2068945;28;20340;-69
2023/07/12 11:25:48;;;;;;;6.07;4.13;;;27.70;47.40;;;;;;2073065;28;20328;-68
2023/07/12 11:27:01;;;;;;;5.27;4.40;;;27.70;46.50;;;;;;2079087;28;20209;-68
2023/07/12 11:28:05;;;;;;;6.60;4.10;;;27.70;46.30;;;;;;2075965;28;20687;-68
2023/07/12 11:29:30;;;;;;;4.93;3.83;;;27.50;47.40;;;;;;2069690;28;20185;-69
2023/07/12 11:30:33;;;;;;;5.13;3.97;;;27.20;48.20;;;;;;2072956;28;20237;-68
2023/07/12 11:31:34;;;;;;;4.67;3.93;;;27.20;47.90;;;;;;2074755;28;20216;-68
2023/07/12 11:32:38;;;;;;;4.23;3.67;;;27.50;46.70;;;;;;2077189;28;20717;-68
2023/07/12 11:33:44;;;;;;;5.60;4.97;;;27.80;45.20;;;;;;2078046;28;20232;-68
2023/07/12 11:34:47;;;;;;;6.97;4.30;;;27.90;44.40;;;;;;2078259;28;20224;-69
2023/07/12 11:35:56;;;;;;;4.57;4.17;;;28.10;43.40;;;;;;2072565;28;20249;-68
2023/07/12 11:37:34;;;;;;;4.30;3.60;;;28.10;44.80;;;;;;2069522;28;20209;-68
2023/07/12 11:38:37;;;;;;;4.75;4.22;;;28.50;44.60;;;;;;2065658;28;20279;-67
2023/07/12 11:39:38;;;;;;;6.55;3.72;;;28.70;43.80;;;;;;2070989;28;20307;-68
2023/07/12 11:40:41;;;;;;;10.50;4.47;;;28.70;44.70;;;;;;2072773;28;20434;-70
2023/07/12 11:42:00;;;;;;;10.40;4.25;;;28.80;43.00;;;;;;2074391;28;20225;-68
2023/07/12 11:43:22;;;;;;;6.63;4.35;;;29.00;42.70;;;;;;2073729;28;20757;-68
2023/07/12 11:44:26;;;;;;;6.75;4.03;;;29.30;42.90;;;;;;2079579;28;20688;-66
2023/07/12 11:45:27;;;;;;;5.32;4.15;;;29.60;43.70;;;;;;2071854;28;20782;-67
2023/07/12 11:46:35;;;;;;;43.47;30.08;;;29.50;43.30;;;;;;2086773;28;20227;-66
2023/07/12 11:47:42;;;;;;;4.93;4.40;;;29.50;41.50;;;;;;2080703;28;20277;-68
2023/07/12 11:48:50;;;;;;;7.82;6.47;;;29.80;42.60;;;;;;2073639;28;20221;-67
2023/07/12 11:49:57;;;;;;;7.90;4.78;;;30.30;41.60;;;;;;2075020;28;20293;-67
2023/07/12 11:51:04;;;;;;;6.32;4.70;;;30.60;40.30;;;;;;2079885;28;20297;-67
2023/07/12 11:52:15;;;;;;;7.20;5.25;;;30.30;41.00;;;;;;2073042;28;20229;-67
2023/07/12 11:53:17;;;;;;;5.40;4.57;;;30.30;41.50;;;;;;2067928;28;20196;-67
2023/07/12 11:54:36;;;;;;;4.93;4.30;;;30.40;40.00;;;;;;2079318;28;20226;-67
2023/07/12 11:55:40;;;;;;;4.78;4.35;;;30.40;39.50;;;;;;2075122;28;20232;-67
2023/07/12 11:56:42;;;;;;;8.25;7.15;;;30.70;40.20;;;;;;2078787;28;20227;-68
2023/07/12 11:57:45;;;;;;;4.72;4.30;;;30.90;39.10;;;;;;2083121;28;20216;-68
2023/07/12 11:58:46;;;;;;;58.90;9.23;;;30.40;39.50;;;;;;2085957;28;20216;-67
2023/07/12 11:59:50;;;;;;;7.28;5.30;;;30.40;39.70;;;;;;2084430;28;20212;-67
2023/07/12 12:00:54;;;;;;;7.40;5.93;;;30.40;40.00;;;;;;2085944;28;20989;-67
2023/07/12 12:01:55;;;;;;;12.30;11.20;;;30.20;39.80;;;;;;2081166;28;20228;-68
2023/07/12 12:02:59;;;;;;;6.65;5.38;;;30.00;39.60;;;;;;2086080;28;20212;-66
2023/07/12 12:03:59;;;;;;;5.85;5.35;;;29.80;39.60;;;;;;2075617;28;20251;-66
2023/07/12 12:05:00;;;;;;;5.07;4.40;;;29.70;40.80;;;;;;2078441;28;20307;-67
2023/07/12 12:06:02;;;;;;;9.07;4.68;;;29.70;41.00;;;;;;2067862;28;20689;-68
2023/07/12 12:07:29;;;;;;;6.72;4.18;;;29.70;40.10;;;;;;2071024;28;20220;-66
2023/07/12 12:08:30;;;;;;;7.70;4.70;;;29.40;40.70;;;;;;2078598;28;20981;-66
2023/07/12 12:09:35;;;;;;;5.87;4.23;;;29.20;41.60;;;;;;2067191;28;20645;-68
2023/07/12 12:10:38;;;;;;;26.43;5.53;;;29.10;41.80;;;;;;2076922;28;20304;-68
2023/07/12 12:11:40;;;;;;;8.03;5.63;;;29.00;41.70;;;;;;2070248;28;20228;-69
2023/07/12 12:12:41;;;;;;;5.93;4.80;;;29.00;41.10;;;;;;2068637;28;20240;-70
2023/07/12 12:13:48;;;;;;;6.63;4.35;;;29.00;41.10;;;;;;2080466;28;20592;-69
2023/07/12 12:14:51;;;;;;;6.35;5.63;;;29.00;41.90;;;;;;2082761;28;20232;-68
2023/07/12 12:16:06;;;;;;;7.15;4.22;;;29.30;42.10;;;;;;2086170;28;20223;-68
2023/07/12 12:17:15;;;;;;;9.20;6.05;;;29.60;41.20;;;;;;2068728;28;20303;-69
2023/07/12 12:18:22;;;;;;;5.63;4.78;;;29.70;41.00;;;;;;2078974;28;20296;-68
2023/07/12 12:19:30;;;;;;;8.00;4.68;;;29.70;41.70;;;;;;2080460;28;20244;-68
2023/07/12 12:20:33;;;;;;;10.13;9.35;;;29.50;40.70;;;;;;2074692;28;20279;-67
2023/07/12 12:21:47;;;;;;;7.68;4.55;;;29.40;42.20;;;;;;2075255;28;20227;-67
2023/07/12 12:22:59;;;;;;;5.33;4.23;;;29.50;41.40;;;;;;2080245;28;20216;-67
2023/07/12 12:24:16;;;;;;;7.13;4.22;;;29.60;40.90;;;;;;2080055;28;20251;-68
2023/07/12 12:25:25;;;;;;;4.70;4.10;;;30.10;39.80;;;;;;2071854;28;20217;-67
2023/07/12 12:26:31;;;;;;;5.78;4.20;;;30.40;40.80;;;;;;2072981;28;20221;-68
2023/07/12 12:27:38;;;;;;;8.35;7.55;;;30.80;38.50;;;;;;2076354;28;20711;-68
2023/07/12 12:28:39;;;;;;;9.30;4.25;;;30.60;37.50;;;;;;2078382;28;20286;-68
2023/07/12 12:29:41;;;;;;;8.37;5.40;;;30.20;39.30;;;;;;2078803;28;20240;-68
2023/07/12 12:31:02;;;;;;;68.90;65.40;;;30.00;39.50;;;;;;2087990;28;20719;-69
2023/07/12 12:32:04;;;;;;;9.03;8.13;;;29.50;40.70;;;;;;2076904;28;20260;-69
2023/07/12 12:33:24;;;;;;;6.77;5.07;;;29.60;41.20;;;;;;2067691;28;20178;-70
2023/07/12 12:34:37;;;;;;;5.77;5.17;;;29.70;40.90;;;;;;2077590;28;20221;-69
2023/07/12 12:35:52;;;;;;;6.10;4.53;;;29.40;40.60;;;;;;2082704;28;20216;-67
2023/07/12 12:37:00;;;;;;;6.20;4.05;;;29.10;42.70;;;;;;2076403;28;20220;-68
2023/07/12 12:38:20;;;;;;;6.85;4.55;;;29.10;41.40;;;;;;2077106;28;20220;-69
2023/07/12 12:39:21;;;;;;;6.50;5.90;;;28.90;42.20;;;;;;2077776;28;20283;-67
2023/07/12 12:40:23;;;;;;;5.23;4.73;;;28.70;41.90;;;;;;2072734;28;20841;-67
2023/07/12 12:41:32;;;;;;;5.83;4.67;;;28.20;43.20;;;;;;2075060;28;20273;-67
2023/07/12 12:42:37;;;;;;;12.63;11.53;;;28.00;44.10;;;;;;2078074;28;20325;-68
2023/07/12 12:43:59;;;;;;;7.40;6.20;;;28.20;43.50;;;;;;2077463;28;20712;-68
2023/07/12 12:44:59;;;;;;;6.80;6.13;;;28.40;43.50;;;;;;2082889;28;20232;-68
2023/07/12 12:46:02;;;;;;;6.43;5.10;;;28.90;43.50;;;;;;2085870;28;20252;-68
2023/07/12 12:47:18;;;;;;;5.40;4.57;;;29.40;41.50;;;;;;2069511;28;20304;-67
2023/07/12 12:48:19;;;;;;;5.18;4.68;;;29.50;39.80;;;;;;2074734;28;20193;-68
2023/07/12 12:49:31;;;;;;;6.05;4.78;;;29.40;40.70;;;;;;2072230;28;20661;-67
2023/07/12 12:50:32;;;;;;;4.88;4.28;;;28.70;41.20;;;;;;2086292;28;20227;-68
2023/07/12 12:51:33;;;;;;;6.83;4.57;;;28.40;42.10;;;;;;2081835;28;20233;-68
2023/07/12 12:52:37;;;;;;;11.73;10.83;;;28.30;43.00;;;;;;2076108;28;20220;-68
2023/07/12 12:53:38;;;;;;;20.77;19.47;;;28.40;42.50;;;;;;2071839;28;20234;-67
2023/07/12 12:54:39;;;;;;;22.90;21.40;;;28.70;41.20;;;;;;2077923;28;20240;-68
2023/07/12 12:55:48;;;;;;;9.30;8.48;;;29.20;40.00;;;;;;2079861;28;20233;-68
2023/07/12 12:56:51;;;;;;;6.07;4.95;;;29.80;40.90;;;;;;2071042;28;20256;-70
2023/07/12 12:57:52;;;;;;;16.10;15.07;;;30.50;38.40;;;;;;2071890;28;20221;-69
2023/07/12 12:58:53;;;;;;;7.32;6.30;;;31.20;36.20;;;;;;2074470;28;20644;-70
2023/07/12 12:59:55;;;;;;;5.50;5.00;;;31.50;35.30;;;;;;2073969;28;20220;-69
2023/07/12 13:00:56;;;;;;;6.22;4.80;;;31.00;35.30;;;;;;2074658;28;20229;-69
2023/07/12 13:01:57;;;;;;;7.22;6.68;;;30.40;37.20;;;;;;2071405;28;20239;-71
2023/07/12 13:02:57;;;;;;;6.13;4.78;;;30.40;37.80;;;;;;2074836;28;20228;-69
2023/07/12 13:03:58;;;;;;;5.60;4.50;;;30.70;36.40;;;;;;2073933;28;20287;-70
2023/07/12 13:04:59;;;;;;;5.03;4.10;;;30.70;37.10;;;;;;2074976;28;20217;-70
2023/07/12 13:06:00;;;;;;;4.53;3.97;;;30.30;38.20;;;;;;2078349;28;20294;-73
2023/07/12 13:07:01;;;;;;;5.75;4.28;;;29.90;38.10;;;;;;2077091;28;20220;-72
2023/07/12 13:08:04;;;;;;;5.18;3.58;;;29.60;38.80;;;;;;2073833;28;20251;-70
2023/07/12 13:09:22;;;;;;;5.07;4.13;;;29.50;39.70;;;;;;2077943;28;20199;-70
2023/07/12 13:10:23;;;;;;;5.20;3.97;;;29.20;40.40;;;;;;2070122;28;20237;-69
2023/07/12 13:11:24;;;;;;;6.67;4.73;;;28.90;40.10;;;;;;2077813;28;20232;-69
2023/07/12 13:12:27;;;;;;;5.17;4.43;;;28.90;40.60;;;;;;2074260;28;20241;-69
2023/07/12 13:13:30;;;;;;;4.80;4.17;;;28.90;41.00;;;;;;2078087;28;20232;-69
2023/07/12 13:14:31;;;;;;;4.30;3.60;;;28.90;41.20;;;;;;2077949;28;20224;-69
2023/07/12 13:15:32;;;;;;;3.87;3.47;;;28.90;42.10;;;;;;2078135;28;20720;-70
2023/07/12 13:16:32;;;;;;;6.20;3.60;;;28.80;41.60;;;;;;2069891;28;20232;-70
2023/07/12 13:17:33;;;;;;;5.60;4.10;;;28.80;40.70;;;;;;2073827;28;20757;-70
2023/07/12 13:18:34;;;;;;;5.67;5.10;;;28.80;39.40;;;;;;2074983;28;20220;-69
2023/07/12 13:19:35;;;;;;;5.25;4.40;;;29.10;39.00;;;;;;2086237;28;20315;-69
2023/07/12 13:20:35;;;;;;;5.10;4.05;;;29.60;38.60;;;;;;2077887;28;20725;-70
2023/07/12 13:21:36;;;;;;;5.68;4.72;;;30.10;37.60;;;;;;2074787;28;20744;-71
2023/07/12 13:22:37;;;;;;;5.18;3.97;;;30.00;37.50;;;;;;2078806;28;20237;-69
2023/07/12 13:23:39;;;;;;;4.20;3.80;;;30.10;38.20;;;;;;2082471;28;20224;-69
2023/07/12 13:24:41;;;;;;;4.53;4.13;;;29.70;37.60;;;;;;2086090;28;20315;-69
2023/07/12 13:25:44;;;;;;;6.60;4.70;;;29.20;38.80;;;;;;2077538;28;20231;-69
2023/07/12 13:26:44;;;;;;;12.32;11.32;;;29.20;39.00;;;;;;2079851;28;20223;-69
2023/07/12 13:27:54;;;;;;;5.13;4.63;;;29.60;38.30;;;;;;2066645;28;20225;-69
2023/07/12 13:28:55;;;;;;;4.47;4.03;;;30.20;38.00;;;;;;2072250;28;20791;-70
2023/07/12 13:29:56;;;;;;;5.40;4.22;;;30.10;36.00;;;;;;2078126;28;20224;-69
2023/07/12 13:30:58;;;;;;;4.40;4.00;;;29.90;36.80;;;;;;2081118;28;20320;-70
2023/07/12 13:31:58;;;;;;;6.78;4.20;;;29.90;36.70;;;;;;2083872;28;20234;-69
2023/07/12 13:32:59;;;;;;;5.88;4.47;;;30.10;37.10;;;;;;2077095;28;20225;-70
2023/07/12 13:34:00;;;;;;;11.90;11.00;;;30.40;37.30;;;;;;2078371;28;20689;-70
2023/07/12 13:35:02;;;;;;;6.22;4.07;;;31.30;35.20;;;;;;2084844;28;20223;-72
2023/07/12 13:36:03;;;;;;;35.65;33.72;;;32.10;35.30;;;;;;2085954;28;20667;-71
2023/07/12 13:37:04;;;;;;;5.38;3.80;;;32.70;31.00;;;;;;2078765;28;20582;-68
2023/07/12 13:38:11;;;;;;;9.90;5.25;;;33.00;31.40;;;;;;2076241;28;20272;-67
2023/07/12 13:39:21;;;;;;;13.43;10.50;;;33.40;31.70;;;;;;2069184;28;20177;-66
2023/07/12 13:40:23;;;;;;;98.90;8.48;;;33.70;30.10;;;;;;2078472;28;20279;-70
2023/07/12 13:41:25;;;;;;;6.45;5.63;;;33.50;30.00;;;;;;2068469;28;20233;-68
2023/07/12 13:42:26;;;;;;;7.80;6.47;;;33.10;30.70;;;;;;2075255;28;20230;-68
2023/07/12 13:43:26;;;;;;;7.90;7.22;;;32.90;30.60;;;;;;2087991;28;20749;-68
2023/07/12 13:44:27;;;;;;;7.10;6.40;;;32.50;32.00;;;;;;2087774;28;20269;-68
2023/07/12 13:45:29;;;;;;;6.10;5.68;;;32.30;32.00;;;;;;2080392;28;20239;-69
2023/07/12 13:46:29;;;;;;;7.32;4.50;;;32.40;31.70;;;;;;2079868;28;21033;-69
2023/07/12 13:47:31;;;;;;;6.65;5.82;;;32.30;32.20;;;;;;2078659;28;20301;-68
2023/07/12 13:48:32;;;;;;;5.90;5.30;;;32.10;32.40;;;;;;2079074;28;20225;-68
2023/07/12 13:49:33;;;;;;;7.20;5.90;;;31.70;32.80;;;;;;2071277;28;20225;-68
2023/07/12 13:50:33;;;;;;;10.20;9.25;;;31.40;33.40;;;;;;2077409;28;20928;-69
2023/07/12 13:51:34;;;;;;;12.82;12.02;;;31.10;33.70;;;;;;2064650;28;20289;-69
2023/07/12 13:52:35;;;;;;;8.27;7.60;;;30.70;34.10;;;;;;2066138;28;20224;-68
2023/07/12 13:53:36;;;;;;;5.03;4.03;;;30.40;34.70;;;;;;2084264;28;20704;-68
2023/07/12 13:54:37;;;;;;;6.07;5.15;;;30.30;34.80;;;;;;2084330;28;20290;-68
2023/07/12 13:55:38;;;;;;;5.22;3.72;;;30.30;35.50;;;;;;2087847;28;20224;-68
2023/07/12 13:56:39;;;;;;;4.45;4.05;;;30.30;36.10;;;;;;2076768;28;20229;-68
2023/07/12 13:57:41;;;;;;;7.05;6.47;;;30.40;36.40;;;;;;2079792;28;20225;-68
2023/07/12 13:58:42;;;;;;;5.32;3.95;;;30.40;36.20;;;;;;2076644;28;20303;-68
2023/07/12 13:59:46;;;;;;;5.03;3.60;;;30.70;35.30;;;;;;2080470;28;20722;-68
2023/07/12 14:00:49;;;;;;;14.20;13.20;;;31.20;35.30;;;;;;2075758;28;20221;-68
2023/07/12 14:01:50;;;;;;;16.42;15.02;;;32.00;34.10;;;;;;2068919;28;20229;-69
2023/07/12 14:02:53;;;;;;;6.18;4.50;;;32.70;32.80;;;;;;2083416;28;20714;-68
2023/07/12 14:03:55;;;;;;;5.38;4.88;;;33.50;32.10;;;;;;2077790;28;20217;-68
2023/07/12 14:04:59;;;;;;;4.85;4.28;;;34.00;30.70;;;;;;2064087;28;20214;-68
2023/07/12 14:06:01;;;;;;;7.07;3.92;;;34.40;30.00;;;;;;2060764;28;20233;-68
2023/07/12 14:07:02;;;;;;;11.23;10.52;;;34.50;29.50;;;;;;2070565;28;20217;-70
2023/07/12 14:08:03;;;;;;;6.63;4.78;;;35.10;29.40;;;;;;2079325;28;20258;-70
2023/07/12 14:09:04;;;;;;;29.70;9.25;;;35.60;29.00;;;;;;2079245;28;20185;-69
2023/07/12 14:10:14;;;;;;;23.70;21.25;;;35.80;28.30;;;;;;2068383;28;20188;-69
2023/07/12 14:11:26;;;;;;;8.32;7.63;;;35.50;28.50;;;;;;2077253;28;20189;-69
2023/07/12 14:12:29;;;;;;;17.77;16.77;;;34.50;28.80;;;;;;2075947;28;20244;-69
2023/07/12 14:13:30;;;;;;;16.45;15.30;;;34.00;29.60;;;;;;2079808;28;20577;-68
2023/07/12 14:14:31;;;;;;;11.52;10.68;;;34.10;29.90;;;;;;2079089;28;20243;-68
2023/07/12 14:15:32;;;;;;;8.95;8.15;;;34.20;29.50;;;;;;2071082;28;20233;-69
2023/07/12 14:16:33;;;;;;;17.02;15.95;;;33.60;29.70;;;;;;2076278;28;20233;-68
2023/07/12 14:17:35;;;;;;;7.13;6.57;;;33.20;30.10;;;;;;2072194;28;20619;-69
2023/07/12 14:18:35;;;;;;;6.03;5.60;;;33.10;30.50;;;;;;2071535;28;20741;-69
2023/07/12 14:19:36;;;;;;;19.20;17.95;;;33.40;31.10;;;;;;2071323;28;20233;-69
2023/07/12 14:20:38;;;;;;;18.98;17.85;;;33.80;29.60;;;;;;2074742;28;20674;-68
2023/07/12 14:21:39;;;;;;;5.72;5.28;;;33.90;29.30;;;;;;2083386;28;20232;-68
2023/07/12 14:22:40;;;;;;;46.67;44.25;;;34.20;29.70;;;;;;2076823;28;20320;-68
2023/07/12 14:23:43;;;;;;;11.20;10.18;;;34.20;29.70;;;;;;2075212;28;20233;-68
2023/07/12 14:24:45;;;;;;;12.45;11.55;;;34.00;29.50;;;;;;2079386;28;20247;-68
2023/07/12 14:25:46;;;;;;;8.82;8.02;;;34.40;29.20;;;;;;2076178;28;20217;-69
2023/07/12 14:26:48;;;;;;;6.22;5.20;;;34.70;28.80;;;;;;2085263;28;20595;-69
2023/07/12 14:27:49;;;;;;;6.63;6.00;;;35.10;28.20;;;;;;2067950;28;20221;-69
2023/07/12 14:28:51;;;;;;;12.93;11.95;;;35.40;27.20;;;;;;2067548;28;20237;-69
2023/07/12 14:29:57;;;;;;;67.65;27.95;;;36.10;26.80;;;;;;2083282;28;20220;-70
2023/07/12 14:30:58;;;;;;;176.50;28.08;;;36.30;26.80;;;;;;2078007;28;20216;-69
2023/07/12 14:31:59;;;;;;;14.82;13.90;;;36.80;26.50;;;;;;2071385;28;20741;-69
2023/07/12 14:33:00;;;;;;;4.82;4.32;;;36.70;25.80;;;;;;2071161;28;20316;-68
2023/07/12 14:34:01;;;;;;;5.15;4.60;;;36.60;26.00;;;;;;2078119;28;20216;-70
2023/07/12 14:35:04;;;;;;;7.22;6.63;;;36.00;25.80;;;;;;2080312;28;20204;-70
2023/07/12 14:36:05;;;;;;;59.85;11.32;;;35.70;27.40;;;;;;2078219;28;20185;-69
2023/07/12 14:37:12;;;;;;;199.98;17.40;;;35.30;27.60;;;;;;2078768;28;20177;-69
2023/07/12 14:38:13;;;;;;;43.42;32.80;;;35.50;27.20;;;;;;2072425;28;20643;-68
2023/07/12 14:39:14;;;;;;;48.28;45.50;;;35.80;26.70;;;;;;2079954;28;20212;-69
2023/07/12 14:40:17;;;;;;;15.95;14.93;;;35.80;26.70;;;;;;2084456;28;20676;-69
2023/07/12 14:41:26;;;;;;;26.92;25.48;;;35.50;27.10;;;;;;2075445;28;20725;-69